Time;durP1;ratioP1;P1;durP2;ratioP2;P2;SDS_P1;SDS_P2;PMS_P1;PMS_P2;Temp;Humidity;BMP_temperature;BMP_pressure;BME280_temperature;BME280_humidity;BME280_pressure;Samples;Min_cycle;Max_cycle;Signal;HPM_P1;HPM_P2
2023/06/12 00:00:52;;;;;;;8.70;4.70;;;;;;;12.30;100.00;98510.13;2605596;28;20483;-86
2023/06/12 00:02:28;;;;;;;7.07;4.88;;;;;;;12.31;100.00;98513.63;2604443;28;20050;-86
2023/06/12 00:03:44;;;;;;;7.85;4.60;;;;;;;12.26;100.00;98517.22;2604640;28;20480;-86
2023/06/12 00:05:00;;;;;;;5.80;4.57;;;;;;;12.27;100.00;98511.06;2602836;28;20059;-85
2023/06/12 00:06:16;;;;;;;5.63;4.32;;;;;;;12.21;100.00;98506.03;2605038;28;20562;-86
2023/06/12 00:07:32;;;;;;;7.93;4.20;;;;;;;12.17;100.00;98512.31;2604457;28;20107;-86
2023/06/12 00:08:47;;;;;;;4.78;4.03;;;;;;;12.18;100.00;98508.78;2603261;28;20515;-86
2023/06/12 00:10:03;;;;;;;5.70;4.50;;;;;;;11.97;100.00;98503.28;2603230;28;20152;-86
2023/06/12 00:11:20;;;;;;;6.63;4.32;;;;;;;12.02;100.00;98508.41;2599085;28;20068;-86
2023/06/12 00:12:35;;;;;;;6.60;4.60;;;;;;;12.09;100.00;98514.31;2602003;28;20045;-86
2023/06/12 00:13:51;;;;;;;8.50;4.47;;;;;;;12.08;100.00;98512.59;2604531;28;20102;-87
2023/06/12 00:15:07;;;;;;;7.40;4.47;;;;;;;12.02;100.00;98504.94;2603220;28;20046;-86
2023/06/12 00:16:23;;;;;;;7.30;4.45;;;;;;;11.87;100.00;98505.34;2598668;28;20053;-86
2023/06/12 00:17:38;;;;;;;6.85;4.70;;;;;;;11.92;100.00;98501.72;2601618;28;20060;-88
2023/06/12 00:18:54;;;;;;;6.53;4.40;;;;;;;11.90;100.00;98501.78;2604293;28;20049;-86
2023/06/12 00:20:10;;;;;;;5.95;4.13;;;;;;;11.84;100.00;98499.34;2602541;28;20160;-87
2023/06/12 00:21:25;;;;;;;5.25;4.10;;;;;;;11.88;100.00;98500.97;2604595;28;20057;-87
2023/06/12 00:22:41;;;;;;;7.00;4.85;;;;;;;11.63;100.00;98495.63;2604312;28;20052;-87
2023/06/12 00:23:57;;;;;;;5.78;4.28;;;;;;;11.68;100.00;98496.38;2604404;28;20072;-87
2023/06/12 00:25:12;;;;;;;7.15;5.00;;;;;;;11.75;100.00;98489.16;2604347;28;20846;-85
2023/06/12 00:26:28;;;;;;;6.55;4.72;;;;;;;11.83;100.00;98497.63;2603405;28;20789;-87
2023/06/12 00:27:44;;;;;;;4.35;3.92;;;;;;;11.82;100.00;98495.91;2602250;28;20061;-88
2023/06/12 00:28:59;;;;;;;7.50;4.47;;;;;;;11.65;100.00;98501.69;2602344;28;20980;-86
2023/06/12 00:30:15;;;;;;;6.00;4.30;;;;;;;11.80;100.00;98505.59;2603062;28;20756;-86
2023/06/12 00:31:31;;;;;;;5.60;4.40;;;;;;;11.81;100.00;98495.06;2603297;28;20446;-86
2023/06/12 00:32:46;;;;;;;6.13;4.80;;;;;;;11.86;100.00;98489.66;2602151;28;20055;-86
2023/06/12 00:34:02;;;;;;;5.93;4.35;;;;;;;11.90;100.00;98493.03;2604569;28;20056;-86
2023/06/12 00:35:18;;;;;;;8.75;4.75;;;;;;;11.59;100.00;98497.50;2604869;28;20052;-87
2023/06/12 00:36:34;;;;;;;6.15;4.78;;;;;;;11.58;100.00;98488.78;2605215;28;20108;-87
2023/06/12 00:37:50;;;;;;;7.25;4.28;;;;;;;11.53;100.00;98495.06;2604068;28;20049;-87
2023/06/12 00:39:06;;;;;;;10.98;4.30;;;;;;;11.31;100.00;98498.34;2601494;28;20056;-88
2023/06/12 00:40:22;;;;;;;6.97;4.47;;;;;;;11.12;100.00;98498.91;2604981;28;20139;-88
2023/06/12 00:41:37;;;;;;;7.57;4.93;;;;;;;10.97;100.00;98499.34;2605044;28;20084;-87
2023/06/12 00:42:53;;;;;;;6.20;4.68;;;;;;;11.19;100.00;98490.88;2602021;28;20052;-86
2023/06/12 00:44:08;;;;;;;8.60;5.25;;;;;;;11.24;100.00;98494.19;2604503;28;20706;-87
2023/06/12 00:45:24;;;;;;;6.75;5.22;;;;;;;11.25;100.00;98491.53;2605514;28;20163;-85
2023/06/12 00:46:40;;;;;;;6.72;4.85;;;;;;;11.38;100.00;98492.03;2603593;28;20069;-86
2023/06/12 00:47:57;;;;;;;8.45;5.32;;;;;;;11.35;100.00;98484.25;2603805;28;20076;-86
2023/06/12 00:49:13;;;;;;;5.88;4.63;;;;;;;11.35;100.00;98484.25;2605463;28;20094;-86
2023/06/12 00:50:29;;;;;;;5.90;4.43;;;;;;;11.37;100.00;98482.44;2602827;28;20470;-86
2023/06/12 00:51:44;;;;;;;6.22;4.90;;;;;;;11.34;100.00;98485.16;2601959;28;20049;-87
2023/06/12 00:53:00;;;;;;;7.10;4.60;;;;;;;11.13;100.00;98482.28;2603041;28;20053;-86
2023/06/12 00:54:16;;;;;;;8.18;4.70;;;;;;;11.24;100.00;98481.09;2603002;28;20050;-86
2023/06/12 00:55:32;;;;;;;6.78;4.45;;;;;;;10.93;100.00;98482.84;2604138;28;20115;-86
2023/06/12 00:56:48;;;;;;;6.63;4.95;;;;;;;10.92;100.00;98480.28;2604153;28;20516;-86
2023/06/12 00:58:03;;;;;;;7.25;4.60;;;;;;;10.59;100.00;98491.66;2603553;28;20120;-86
2023/06/12 00:59:20;;;;;;;5.68;4.43;;;;;;;10.49;100.00;98483.22;2602325;28;20049;-86
2023/06/12 01:00:39;;;;;;;7.07;4.93;;;;;;;10.50;100.00;98484.94;2602604;28;20049;-85
2023/06/12 01:01:54;;;;;;;7.15;4.97;;;;;;;10.59;100.00;98481.19;2604547;28;20083;-86
2023/06/12 01:03:12;;;;;;;6.35;4.70;;;;;;;10.57;100.00;98485.63;2604511;28;20040;-85
2023/06/12 01:04:28;;;;;;;6.90;4.65;;;;;;;10.77;100.00;98485.06;2602673;28;20049;-85
2023/06/12 01:05:45;;;;;;;6.47;4.80;;;;;;;10.94;100.00;98483.72;2598406;28;20068;-86
2023/06/12 01:07:12;;;;;;;6.68;4.88;;;;;;;11.08;100.00;98485.94;2601883;28;20067;-86
2023/06/12 01:08:48;;;;;;;9.15;4.85;;;;;;;11.10;100.00;98476.25;2602317;28;20045;-85
2023/06/12 01:10:28;;;;;;;11.90;5.13;;;;;;;10.79;100.00;98488.50;2603950;28;20064;-85
2023/06/12 01:11:46;;;;;;;6.78;4.22;;;;;;;10.89;100.00;98481.22;2602036;28;20046;-85
2023/06/12 01:13:02;;;;;;;9.15;4.65;;;;;;;10.85;100.00;98485.69;2603926;28;20045;-85
2023/06/12 01:14:20;;;;;;;8.68;4.72;;;;;;;10.96;100.00;98482.75;2598253;28;20041;-85
2023/06/12 01:15:36;;;;;;;8.18;4.80;;;;;;;10.97;100.00;98481.88;2603198;28;20050;-86
2023/06/12 01:16:52;;;;;;;6.75;4.38;;;;;;;10.93;100.00;98477.59;2602603;28;20053;-85
2023/06/12 01:18:08;;;;;;;9.52;5.15;;;;;;;10.88;100.00;98485.59;2605075;28;20144;-86
2023/06/12 01:19:24;;;;;;;6.82;4.30;;;;;;;10.90;100.00;98490.81;2601601;28;20049;-85
2023/06/12 01:20:42;;;;;;;12.70;4.68;;;;;;;10.76;100.00;98488.59;2601892;28;20064;-85
2023/06/12 01:22:04;;;;;;;7.63;4.68;;;;;;;10.84;100.00;98486.59;2603851;28;20563;-85
2023/06/12 01:23:46;;;;;;;6.50;4.60;;;;;;;11.00;100.00;98483.53;2603789;28;20456;-85
2023/06/12 01:25:35;;;;;;;7.03;4.45;;;;;;;11.06;100.00;98483.38;2603987;28;20132;-85
2023/06/12 01:27:03;;;;;;;7.13;4.55;;;;;;;11.01;100.00;98480.88;2602770;28;20052;-86
2023/06/12 01:28:39;;;;;;;8.27;4.80;;;;;;;11.06;100.00;98478.13;2602775;28;20132;-86
2023/06/12 01:30:32;;;;;;;10.35;5.00;;;;;;;11.13;100.00;98482.28;2605216;28;20045;-85
2023/06/12 01:31:56;;;;;;;8.00;4.70;;;;;;;11.15;100.00;98475.22;2603101;28;20067;-85
2023/06/12 01:33:17;;;;;;;7.65;4.75;;;;;;;11.15;100.00;98477.00;2597736;28;20054;-85
2023/06/12 01:34:50;;;;;;;7.10;4.60;;;;;;;11.11;100.00;98481.47;2603258;28;20049;-85
2023/06/12 01:36:10;;;;;;;8.57;4.85;;;;;;;10.81;100.00;98488.44;2602681;28;20052;-85
2023/06/12 01:37:42;;;;;;;8.82;5.35;;;;;;;10.71;100.00;98491.34;2601936;28;20196;-86
2023/06/12 01:39:00;;;;;;;8.82;5.15;;;;;;;10.72;100.00;98485.19;2602956;28;20050;-85
2023/06/12 01:40:18;;;;;;;7.72;5.13;;;;;;;10.70;100.00;98487.00;2602449;28;20554;-86
2023/06/12 01:41:34;;;;;;;7.95;5.18;;;;;;;10.76;100.00;98477.25;2602528;28;20052;-86
2023/06/12 01:42:50;;;;;;;5.65;4.85;;;;;;;10.67;100.00;98483.59;2604336;28;20455;-86
2023/06/12 01:44:09;;;;;;;7.50;4.50;;;;;;;10.74;100.00;98487.75;2602443;28;20147;-85
2023/06/12 01:45:25;;;;;;;8.50;5.32;;;;;;;10.77;100.00;98484.19;2601870;28;20053;-85
2023/06/12 01:46:41;;;;;;;7.38;5.20;;;;;;;10.79;100.00;98477.16;2601961;28;20076;-85
2023/06/12 01:47:56;;;;;;;7.63;4.55;;;;;;;10.56;100.00;98482.13;2603042;28;20503;-86
2023/06/12 01:49:12;;;;;;;6.90;5.28;;;;;;;10.52;100.00;98484.88;2602182;28;20084;-85
2023/06/12 01:50:27;;;;;;;7.55;4.75;;;;;;;10.54;100.00;98481.31;2602737;28;20045;-86
2023/06/12 01:51:43;;;;;;;8.38;5.10;;;;;;;10.53;100.00;98476.09;2604171;28;20041;-86
2023/06/12 01:52:58;;;;;;;8.70;4.82;;;;;;;10.16;100.00;98486.63;2601911;28;20497;-86
2023/06/12 01:54:15;;;;;;;7.47;5.20;;;;;;;10.26;100.00;98487.25;2602512;28;20041;-86
2023/06/12 01:55:31;;;;;;;8.05;5.22;;;;;;;10.24;100.00;98493.41;2603556;28;20328;-86
2023/06/12 01:56:46;;;;;;;7.22;5.18;;;;;;;10.13;100.00;98493.69;2602123;28;20049;-86
2023/06/12 01:58:02;;;;;;;7.68;5.20;;;;;;;10.30;100.00;98495.88;2601752;28;20413;-86
2023/06/12 01:59:18;;;;;;;7.45;4.95;;;;;;;10.50;100.00;98499.75;2604428;28;20496;-86
2023/06/12 02:00:35;;;;;;;9.73;4.90;;;;;;;10.59;100.00;98489.03;2603152;28;20046;-86
2023/06/12 02:01:50;;;;;;;8.25;4.70;;;;;;;10.66;100.00;98497.59;2603476;28;20049;-86
2023/06/12 02:03:06;;;;;;;7.68;5.05;;;;;;;10.68;100.00;98498.41;2603914;28;20048;-86
2023/06/12 02:04:22;;;;;;;6.82;4.80;;;;;;;10.68;100.00;98498.41;2602331;28;20141;-86
2023/06/12 02:05:38;;;;;;;7.15;5.18;;;;;;;10.71;100.00;98490.47;2601397;28;20045;-86
2023/06/12 02:06:53;;;;;;;9.02;5.00;;;;;;;10.70;100.00;98488.75;2602244;28;20056;-86
2023/06/12 02:08:09;;;;;;;6.53;5.03;;;;;;;10.72;100.00;98486.94;2602722;28;20080;-86
2023/06/12 02:09:24;;;;;;;5.35;4.47;;;;;;;10.69;100.00;98484.41;2603724;28;20059;-86
2023/06/12 02:10:40;;;;;;;6.57;4.88;;;;;;;10.68;100.00;98485.31;2603598;28;20397;-86
2023/06/12 02:11:56;;;;;;;6.57;4.95;;;;;;;10.74;100.00;98490.38;2602765;28;20420;-86
2023/06/12 02:13:11;;;;;;;5.47;4.43;;;;;;;10.74;100.00;98493.84;2603228;28;20076;-86
2023/06/12 02:14:27;;;;;;;6.13;4.63;;;;;;;10.80;100.00;98492.84;2603638;28;20087;-86
2023/06/12 02:15:43;;;;;;;6.07;4.38;;;;;;;10.71;100.00;98490.47;2602944;28;20046;-86
2023/06/12 02:17:02;;;;;;;8.93;4.97;;;;;;;10.70;100.00;98488.75;2603864;28;20056;-86
2023/06/12 02:18:17;;;;;;;11.13;4.85;;;;;;;10.67;100.00;98488.84;2602715;28;20057;-86
2023/06/12 02:19:33;;;;;;;7.78;5.07;;;;;;;10.37;100.00;98492.19;2601598;28;20694;-86
2023/06/12 02:20:52;;;;;;;9.38;4.70;;;;;;;10.34;100.00;98501.88;2603299;28;20091;-85
2023/06/12 02:22:07;;;;;;;7.40;5.20;;;;;;;10.19;100.00;98501.38;2601732;28;20106;-86
2023/06/12 02:23:23;;;;;;;7.70;5.25;;;;;;;10.08;100.00;98504.28;2597700;28;20107;-86
2023/06/12 02:24:39;;;;;;;7.22;4.80;;;;;;;10.03;100.00;98501.75;2603293;28;20045;-86
2023/06/12 02:25:54;;;;;;;6.25;5.00;;;;;;;10.13;100.00;98496.31;2603704;28;20390;-86
2023/06/12 02:27:11;;;;;;;6.80;4.90;;;;;;;10.26;100.00;98500.34;2603310;28;20057;-85
2023/06/12 02:28:26;;;;;;;7.55;4.97;;;;;;;10.16;100.00;98515.41;2602532;28;20503;-86
2023/06/12 02:29:42;;;;;;;7.07;5.00;;;;;;;10.18;100.00;98503.16;2604311;28;20049;-86
2023/06/12 02:30:58;;;;;;;6.45;4.82;;;;;;;10.26;100.00;98502.94;2602687;28;20103;-87
2023/06/12 02:32:13;;;;;;;9.63;5.20;;;;;;;10.26;100.00;98509.94;2602981;28;20409;-86
2023/06/12 02:33:30;;;;;;;6.47;5.13;;;;;;;10.22;100.00;98501.31;2604126;28;20053;-84
2023/06/12 02:34:47;;;;;;;7.18;4.82;;;;;;;10.20;100.00;98503.13;2602434;28;20088;-84
2023/06/12 02:36:02;;;;;;;7.60;4.68;;;;;;;10.20;100.00;98505.75;2604412;28;20053;-85
2023/06/12 02:37:18;;;;;;;9.20;4.88;;;;;;;10.26;100.00;98499.47;2602294;28;20084;-85
2023/06/12 02:38:34;;;;;;;8.05;4.80;;;;;;;10.32;100.00;98505.41;2602241;28;20064;-85
2023/06/12 02:39:50;;;;;;;7.53;4.40;;;;;;;10.31;100.00;98514.16;2602414;28;20057;-85
2023/06/12 02:41:12;;;;;;;7.65;4.90;;;;;;;10.25;100.00;98509.09;2604436;28;20052;-86
2023/06/12 02:42:28;;;;;;;6.78;4.30;;;;;;;10.24;100.00;98506.50;2602061;28;20156;-86
2023/06/12 02:43:43;;;;;;;7.88;4.90;;;;;;;9.89;100.00;98506.47;2603102;28;20544;-85
2023/06/12 02:44:59;;;;;;;8.40;5.57;;;;;;;9.97;100.00;98512.38;2603063;28;20719;-85
2023/06/12 02:46:15;;;;;;;7.90;5.20;;;;;;;10.01;100.00;98511.41;2603121;28;20059;-85
2023/06/12 02:47:30;;;;;;;8.65;5.10;;;;;;;9.81;100.00;98508.44;2602330;28;20618;-85
2023/06/12 02:48:46;;;;;;;7.40;5.15;;;;;;;9.83;100.00;98520.56;2603366;28;20060;-86
2023/06/12 02:50:02;;;;;;;6.97;4.80;;;;;;;9.92;100.00;98506.44;2603871;28;20196;-85
2023/06/12 02:51:18;;;;;;;10.02;5.22;;;;;;;10.03;100.00;98514.00;2604617;28;20056;-85
2023/06/12 02:52:33;;;;;;;6.78;5.20;;;;;;;10.06;100.00;98520.88;2605657;28;20068;-85
2023/06/12 02:53:49;;;;;;;6.53;4.88;;;;;;;10.08;100.00;98514.72;2605929;28;20504;-85
2023/06/12 02:55:05;;;;;;;6.88;4.80;;;;;;;10.07;100.00;98509.56;2606233;28;20060;-85
2023/06/12 02:56:20;;;;;;;7.80;4.80;;;;;;;9.70;100.00;98512.16;2603466;28;20087;-86
2023/06/12 02:57:36;;;;;;;9.02;5.10;;;;;;;9.81;100.00;98511.03;2604479;28;20041;-86
2023/06/12 02:58:52;;;;;;;8.48;5.25;;;;;;;9.71;100.00;98515.63;2606485;28;20049;-86
2023/06/12 03:00:08;;;;;;;8.02;5.43;;;;;;;9.72;100.00;98514.75;2605142;28;20060;-85
2023/06/12 03:01:25;;;;;;;8.20;5.30;;;;;;;9.92;100.00;98522.13;2604169;28;20052;-86
2023/06/12 03:02:42;;;;;;;11.88;5.60;;;;;;;9.88;100.00;98516.09;2603999;28;20045;-86
2023/06/12 03:03:59;;;;;;;6.95;5.18;;;;;;;10.01;100.00;98516.63;2605175;28;20058;-86
2023/06/12 03:05:15;;;;;;;7.35;4.80;;;;;;;9.98;100.00;98521.09;2604698;28;20047;-86
2023/06/12 03:06:31;;;;;;;8.02;5.07;;;;;;;10.10;100.00;98512.09;2599750;28;20416;-85
2023/06/12 03:07:46;;;;;;;7.28;5.35;;;;;;;10.22;100.00;98517.03;2604969;28;20053;-85
2023/06/12 03:09:03;;;;;;;12.00;5.22;;;;;;;10.26;100.00;98516.03;2603520;28;20053;-85
2023/06/12 03:10:19;;;;;;;7.10;4.88;;;;;;;10.32;100.00;98517.63;2604807;28;20512;-85
2023/06/12 03:11:36;;;;;;;9.70;5.03;;;;;;;10.20;100.00;98518.81;2604234;28;20041;-85
2023/06/12 03:12:51;;;;;;;7.22;5.18;;;;;;;10.14;100.00;98521.56;2604125;28;20048;-86
2023/06/12 03:14:07;;;;;;;6.75;5.13;;;;;;;9.99;100.00;98514.97;2604851;28;20049;-85
2023/06/12 03:15:24;;;;;;;11.20;5.40;;;;;;;10.13;100.00;98520.72;2603526;28;20045;-86
2023/06/12 03:16:39;;;;;;;8.43;5.32;;;;;;;10.31;100.00;98521.16;2602745;28;20041;-85
2023/06/12 03:17:55;;;;;;;7.60;4.78;;;;;;;10.27;100.00;98527.38;2605728;28;20132;-86
2023/06/12 03:19:10;;;;;;;7.50;5.40;;;;;;;9.95;100.00;98522.03;2603770;28;20053;-86
2023/06/12 03:20:26;;;;;;;8.48;5.30;;;;;;;9.84;100.00;98529.28;2604601;28;20053;-86
2023/06/12 03:21:43;;;;;;;6.68;5.15;;;;;;;9.89;100.00;98530.00;2599602;28;20049;-86
2023/06/12 03:22:59;;;;;;;8.75;6.35;;;;;;;9.82;100.00;98531.06;2603287;28;20084;-86
2023/06/12 03:24:15;;;;;;;8.38;5.57;;;;;;;9.99;100.00;98528.06;2603543;28;20432;-86
2023/06/12 03:25:30;;;;;;;7.60;5.20;;;;;;;10.07;100.00;98536.56;2603562;28;20072;-86
2023/06/12 03:26:46;;;;;;;7.78;5.38;;;;;;;10.11;100.00;98538.19;2604543;28;20103;-87
2023/06/12 03:28:02;;;;;;;8.07;5.25;;;;;;;10.08;100.00;98535.66;2604786;28;20107;-86
2023/06/12 03:29:18;;;;;;;7.38;5.40;;;;;;;10.00;100.00;98538.47;2603583;28;20079;-86
2023/06/12 03:30:33;;;;;;;10.23;5.22;;;;;;;10.01;100.00;98534.94;2604728;28;20049;-86
2023/06/12 03:31:49;;;;;;;7.22;5.25;;;;;;;10.00;100.00;98535.00;2606059;28;20060;-86
2023/06/12 03:33:04;;;;;;;8.02;5.45;;;;;;;10.05;100.00;98538.34;2604061;28;20413;-86
2023/06/12 03:34:20;;;;;;;7.35;5.13;;;;;;;9.76;100.00;98542.53;2603045;28;20050;-86
2023/06/12 03:35:36;;;;;;;7.55;5.45;;;;;;;9.83;100.00;98538.00;2602976;28;20052;-85
2023/06/12 03:36:51;;;;;;;12.80;6.20;;;;;;;9.85;100.00;98534.47;2602422;28;20088;-85
2023/06/12 03:38:07;;;;;;;8.98;5.82;;;;;;;10.01;100.00;98534.94;2604442;28;20629;-85
2023/06/12 03:39:23;;;;;;;7.90;5.75;;;;;;;9.98;100.00;98542.00;2599206;28;20421;-85
2023/06/12 03:40:38;;;;;;;8.20;5.75;;;;;;;9.97;100.00;98546.38;2604659;28;20123;-85
2023/06/12 03:41:58;;;;;;;8.10;5.95;;;;;;;10.01;100.00;98544.56;2605565;28;20049;-86
2023/06/12 03:43:14;;;;;;;7.60;5.43;;;;;;;10.02;100.00;98539.28;2604441;28;20050;-86
2023/06/12 03:44:30;;;;;;;8.55;5.55;;;;;;;10.09;100.00;98545.22;2605362;28;20056;-87
2023/06/12 03:45:46;;;;;;;7.20;5.05;;;;;;;9.95;100.00;98545.56;2604179;28;20058;-86
2023/06/12 03:47:02;;;;;;;7.30;5.38;;;;;;;9.91;100.00;98550.91;2602959;28;20128;-87
2023/06/12 03:48:18;;;;;;;8.57;5.63;;;;;;;9.91;100.00;98549.13;2599349;28;20484;-87
2023/06/12 03:49:33;;;;;;;7.22;5.20;;;;;;;10.09;100.00;98549.63;2602793;28;20534;-87
2023/06/12 03:50:49;;;;;;;7.18;5.20;;;;;;;10.15;100.00;98555.56;2602866;28;20045;-87
2023/06/12 03:52:05;;;;;;;9.80;6.22;;;;;;;10.20;100.00;98551.97;2605501;28;20048;-87
2023/06/12 03:53:21;;;;;;;7.53;5.70;;;;;;;10.28;100.00;98547.41;2603708;28;20045;-87
2023/06/12 03:54:36;;;;;;;8.35;5.63;;;;;;;10.36;100.00;98549.81;2605828;28;20048;-87
2023/06/12 03:55:52;;;;;;;8.73;6.05;;;;;;;10.26;100.00;98551.78;2602678;28;20056;-87
2023/06/12 03:57:08;;;;;;;8.30;5.97;;;;;;;10.45;100.00;98547.88;2603187;28;20053;-87
2023/06/12 03:58:24;;;;;;;8.23;5.55;;;;;;;10.52;100.00;98547.69;2604873;28;20052;-87
2023/06/12 03:59:40;;;;;;;8.40;5.72;;;;;;;10.62;100.00;98549.19;2604950;28;20149;-87
2023/06/12 04:00:56;;;;;;;10.25;6.90;;;;;;;10.56;100.00;98560.66;2603155;28;20054;-87
2023/06/12 04:02:12;;;;;;;7.75;6.00;;;;;;;10.63;100.00;98553.50;2604056;28;20566;-87
2023/06/12 04:03:27;;;;;;;10.15;5.95;;;;;;;10.50;100.00;98557.34;2602513;28;20045;-87
2023/06/12 04:04:43;;;;;;;8.90;5.72;;;;;;;10.65;100.00;98559.56;2604553;28;20044;-87
2023/06/12 04:05:58;;;;;;;8.20;6.10;;;;;;;10.75;100.00;98557.56;2606072;28;20300;-86
2023/06/12 04:07:14;;;;;;;8.30;6.00;;;;;;;10.71;100.00;98555.91;2603173;28;20048;-87
2023/06/12 04:08:30;;;;;;;9.32;5.78;;;;;;;10.72;100.00;98550.66;2603595;28;20467;-86
2023/06/12 04:09:45;;;;;;;8.13;5.68;;;;;;;10.72;100.00;98555.91;2603609;28;20053;-87
2023/06/12 04:11:02;;;;;;;7.78;5.63;;;;;;;10.79;100.00;98551.34;2603615;28;20049;-86
2023/06/12 04:12:18;;;;;;;10.23;6.05;;;;;;;10.80;100.00;98550.44;2602383;28;20055;-86
2023/06/12 04:13:33;;;;;;;8.77;5.75;;;;;;;10.88;100.00;98548.47;2604591;28;20049;-86
2023/06/12 04:14:49;;;;;;;7.53;5.70;;;;;;;10.97;100.00;98550.00;2604790;28;20115;-85
2023/06/12 04:16:06;;;;;;;9.98;5.90;;;;;;;10.89;100.00;98557.19;2604385;28;20050;-86
2023/06/12 04:17:21;;;;;;;7.82;5.97;;;;;;;10.88;100.00;98561.56;2604162;28;20044;-86
2023/06/12 04:18:38;;;;;;;9.45;6.10;;;;;;;10.75;100.00;98562.78;2602447;28;20053;-86
2023/06/12 04:19:55;;;;;;;8.48;5.78;;;;;;;10.85;100.00;98561.66;2603512;28;20394;-85
2023/06/12 04:21:11;;;;;;;8.35;5.90;;;;;;;10.86;100.00;98555.50;2604274;28;20131;-85
2023/06/12 04:22:27;;;;;;;7.25;5.80;;;;;;;10.86;100.00;98562.53;2604315;28;20153;-85
2023/06/12 04:23:47;;;;;;;8.75;6.05;;;;;;;10.79;100.00;98556.59;2604980;28;20527;-86
2023/06/12 04:25:05;;;;;;;7.55;5.88;;;;;;;10.77;100.00;98561.00;2603311;28;20068;-85
2023/06/12 04:26:21;;;;;;;9.05;5.68;;;;;;;10.94;100.00;98563.16;2602283;28;20079;-84
2023/06/12 04:27:36;;;;;;;7.75;5.75;;;;;;;11.09;100.00;98554.00;2603732;28;20044;-84
2023/06/12 04:28:54;;;;;;;8.82;5.45;;;;;;;11.27;100.00;98557.00;2604029;28;20056;-84
2023/06/12 04:30:11;;;;;;;8.05;5.57;;;;;;;11.26;100.00;98558.78;2602506;28;20469;-85
2023/06/12 04:31:26;;;;;;;8.20;5.50;;;;;;;11.22;100.00;98559.75;2602473;28;20103;-87
2023/06/12 04:32:42;;;;;;;12.68;6.07;;;;;;;11.19;100.00;98561.63;2604418;28;20040;-87
2023/06/12 04:33:58;;;;;;;10.07;6.03;;;;;;;11.16;100.00;98552.91;2605282;28;20060;-87
2023/06/12 04:35:17;;;;;;;10.15;5.90;;;;;;;11.07;100.00;98555.81;2603249;28;20051;-87
2023/06/12 04:36:37;;;;;;;7.38;4.90;;;;;;;10.86;100.00;98555.50;2605114;28;20131;-87
2023/06/12 04:37:53;;;;;;;7.00;4.97;;;;;;;10.97;100.00;98559.59;2603152;28;20049;-87
2023/06/12 04:39:11;;;;;;;9.05;5.05;;;;;;;10.97;100.00;98552.59;2604421;28;20574;-88
2023/06/12 04:40:26;;;;;;;6.50;4.85;;;;;;;11.05;100.00;98557.63;2602271;28;20485;-87
2023/06/12 04:41:42;;;;;;;7.28;5.72;;;;;;;11.01;100.00;98558.59;2599261;28;20069;-87
2023/06/12 04:42:59;;;;;;;7.22;5.45;;;;;;;11.13;100.00;98555.63;2602830;28;20068;-87
2023/06/12 04:44:14;;;;;;;7.40;5.32;;;;;;;11.27;100.00;98550.00;2604241;28;20876;-87
2023/06/12 04:45:32;;;;;;;8.00;5.43;;;;;;;11.32;100.00;98549.00;2602427;28;20072;-87
2023/06/12 04:46:48;;;;;;;8.25;5.60;;;;;;;11.31;100.00;98545.50;2604999;28;20074;-87
2023/06/12 04:48:04;;;;;;;7.80;5.35;;;;;;;11.39;100.00;98554.03;2602594;28;20054;-88
2023/06/12 04:49:20;;;;;;;8.13;5.53;;;;;;;11.43;100.00;98549.56;2605529;28;20042;-87
2023/06/12 04:50:36;;;;;;;7.43;5.22;;;;;;;11.63;100.00;98551.59;2603505;28;20064;-88
2023/06/12 04:51:52;;;;;;;9.10;5.57;;;;;;;11.56;100.00;98553.53;2604615;28;20520;-87
2023/06/12 04:53:07;;;;;;;11.07;5.60;;;;;;;11.59;100.00;98553.44;2603800;28;20076;-88
2023/06/12 04:54:23;;;;;;;6.72;5.18;;;;;;;11.64;100.00;98549.81;2600966;28;20064;-88
2023/06/12 04:55:40;;;;;;;8.50;5.25;;;;;;;11.56;100.00;98552.66;2603365;28;20052;-87
2023/06/12 04:56:57;;;;;;;7.32;5.18;;;;;;;11.61;100.00;98549.91;2602771;28;20124;-88
2023/06/12 04:58:12;;;;;;;8.05;5.75;;;;;;;11.66;100.00;98559.34;2603392;28;20056;-89
2023/06/12 04:59:28;;;;;;;8.18;5.60;;;;;;;11.86;100.00;98555.22;2603346;28;20045;-88
2023/06/12 05:00:47;;;;;;;9.02;5.90;;;;;;;11.80;100.00;98552.81;2603072;28;20536;-87
2023/06/12 05:02:04;;;;;;;9.82;5.40;;;;;;;11.82;100.00;98553.63;2605112;28;20044;-88
2023/06/12 05:03:20;;;;;;;7.47;5.20;;;;;;;11.82;100.00;98551.88;2603911;28;20045;-87
2023/06/12 05:04:37;;;;;;;12.48;5.68;;;;;;;11.77;100.00;98555.53;2602926;28;20103;-87
2023/06/12 05:05:52;;;;;;;11.38;5.80;;;;;;;11.83;100.00;98555.34;2603534;28;20501;-88
2023/06/12 05:07:16;;;;;;;10.07;5.30;;;;;;;11.82;100.00;98558.88;2602979;28;20048;-88
2023/06/12 05:08:33;;;;;;;7.75;5.38;;;;;;;11.87;100.00;98549.94;2601915;28;20049;-87
2023/06/12 05:09:49;;;;;;;6.85;5.45;;;;;;;11.97;100.00;98558.38;2604846;28;20059;-88
2023/06/12 05:11:04;;;;;;;9.65;5.55;;;;;;;12.04;100.00;98556.47;2602917;28;20546;-88
2023/06/12 05:12:20;;;;;;;7.00;5.10;;;;;;;12.16;100.00;98557.84;2603686;28;20132;-88
2023/06/12 05:13:36;;;;;;;6.82;5.60;;;;;;;12.29;100.00;98555.66;2603105;28;20053;-88
2023/06/12 05:14:51;;;;;;;6.97;5.20;;;;;;;12.29;100.00;98556.53;2604524;28;20504;-88
2023/06/12 05:16:07;;;;;;;7.90;5.72;;;;;;;12.29;100.00;98555.66;2602795;28;20083;-88
2023/06/12 05:17:22;;;;;;;12.18;6.38;;;;;;;12.49;100.00;98549.75;2602814;28;20048;-88
2023/06/12 05:18:38;;;;;;;9.43;5.80;;;;;;;12.36;100.00;98553.69;2604195;28;20048;-88
2023/06/12 05:19:53;;;;;;;9.57;5.65;;;;;;;12.18;100.00;98558.66;2598468;28;20280;-89
2023/06/12 05:21:09;;;;;;;7.90;5.25;;;;;;;12.11;100.00;98552.75;2602394;28;20066;-88
2023/06/12 05:22:25;;;;;;;11.02;5.30;;;;;;;12.19;100.00;98555.13;2604194;28;20056;-89
2023/06/12 05:23:41;;;;;;;8.40;5.72;;;;;;;12.49;100.00;98552.38;2603790;28;20049;-88
2023/06/12 05:24:56;;;;;;;7.65;6.10;;;;;;;12.77;100.00;98558.41;2603749;28;20500;-88
2023/06/12 05:26:11;;;;;;;7.03;5.40;;;;;;;12.85;100.00;98552.00;2605539;28;20056;-86
2023/06/12 05:27:27;;;;;;;8.18;5.30;;;;;;;12.85;100.00;98551.13;2602981;28;20154;-86
2023/06/12 05:28:43;;;;;;;8.60;6.05;;;;;;;13.11;100.00;98555.44;2605170;28;20041;-85
2023/06/12 05:29:58;;;;;;;7.60;5.78;;;;;;;12.76;100.00;98560.22;2602717;28;20041;-87
2023/06/12 05:31:14;;;;;;;6.28;5.18;;;;;;;12.80;100.00;98553.09;2603100;28;20045;-86
2023/06/12 05:32:30;;;;;;;7.78;5.40;;;;;;;13.17;100.00;98551.72;2602783;28;20149;-87
2023/06/12 05:33:45;;;;;;;7.40;5.70;;;;;;;13.31;100.00;98553.88;2594178;28;20510;-87
2023/06/12 05:35:01;;;;;;;6.95;5.47;;;;;;;13.45;100.00;98555.16;2590992;28;20180;-87
2023/06/12 05:36:17;;;;;;;7.38;5.53;;;;;;;13.30;100.00;98564.44;2604072;28;20053;-87
2023/06/12 05:37:33;;;;;;;6.70;5.63;;;;;;;13.25;100.00;98564.59;2601137;28;20548;-87
2023/06/12 05:38:48;;;;;;;8.43;5.90;;;;;;;13.12;100.00;98556.31;2601030;28;20052;-87
2023/06/12 05:40:05;;;;;;;10.18;5.72;;;;;;;13.34;100.00;98559.00;2597041;28;20120;-88
2023/06/12 05:41:20;;;;;;;8.68;6.38;;;;;;;13.41;100.00;98562.25;2599403;28;20133;-87
2023/06/12 05:42:36;;;;;;;7.53;5.57;;;;;;;13.45;100.00;98574.41;2601130;28;20075;-87
2023/06/12 05:43:52;;;;;;;7.70;5.70;;;;;;;13.34;100.00;98566.88;2604421;28;20492;-88
2023/06/12 05:45:07;;;;;;;8.23;5.53;;;;;;;13.42;100.00;98569.22;2602373;28;20416;-87
2023/06/12 05:46:23;;;;;;;11.10;5.90;;;;;;;13.48;100.00;98570.81;2603572;28;20049;-87
2023/06/12 05:47:39;;;;;;;9.73;5.45;;;;;;;13.93;100.00;98569.94;2601939;28;20072;-88
2023/06/12 05:48:57;;;;;;;10.25;5.45;;;;;;;13.78;100.00;98562.66;2602986;28;20046;-86
2023/06/12 05:50:12;;;;;;;9.18;6.05;;;;;;;14.03;100.00;98573.03;2601716;28;20056;-86
2023/06/12 05:51:28;;;;;;;10.40;5.72;;;;;;;14.21;100.00;98574.09;2603453;28;20049;-83
2023/06/12 05:52:44;;;;;;;9.60;5.63;;;;;;;14.27;100.00;98578.25;2600338;28;20045;-84
2023/06/12 05:54:00;;;;;;;9.63;5.63;;;;;;;14.20;100.00;98574.16;2602602;28;20058;-84
2023/06/12 05:55:17;;;;;;;9.85;6.15;;;;;;;14.40;100.00;98575.97;2604458;28;20057;-84
2023/06/12 05:56:32;;;;;;;8.73;6.28;;;;;;;14.34;100.00;98581.47;2603382;28;20041;-84
2023/06/12 05:57:48;;;;;;;8.70;6.03;;;;;;;14.43;100.00;98575.84;2600450;28;20404;-84